createdAt,value
2023-03-03T00:01:37.628Z,22.50
2023-03-03T00:04:04.144Z,23.87
2023-03-03T00:06:30.820Z,23.30
2023-03-03T00:08:58.038Z,22.43
2023-03-03T00:11:24.789Z,21.10
2023-03-03T00:13:55.606Z,21.60
2023-03-03T00:16:40.692Z,22.70
2023-03-03T00:19:16.608Z,22.50
2023-03-03T00:21:46.194Z,22.60
2023-03-03T00:24:23.644Z,23.63
2023-03-03T00:26:55.347Z,23.50
2023-03-03T00:29:30.587Z,22.23
2023-03-03T00:32:09.670Z,22.20
2023-03-03T00:34:36.582Z,23.43
2023-03-03T00:37:03.015Z,22.87
2023-03-03T00:39:35.376Z,23.13
2023-03-03T00:42:05.788Z,23.20
2023-03-03T00:44:45.463Z,23.57
2023-03-03T00:47:35.493Z,20.07
2023-03-03T00:50:11.085Z,21.60
2023-03-03T00:52:45.715Z,20.57
2023-03-03T00:55:12.464Z,23.00
2023-03-03T00:57:38.920Z,22.47
2023-03-03T01:00:09.129Z,22.73
2023-03-03T01:02:35.835Z,20.00
2023-03-03T01:05:02.302Z,23.17
2023-03-03T01:07:28.765Z,21.97
2023-03-03T01:09:55.205Z,22.67
2023-03-03T01:12:21.824Z,21.53
2023-03-03T01:14:49.295Z,21.97
2023-03-03T01:17:15.789Z,20.93
2023-03-03T01:19:42.236Z,23.00
2023-03-03T01:22:08.678Z,22.67
2023-03-03T01:24:35.157Z,21.87
2023-03-03T01:27:01.590Z,23.30
2023-03-03T01:29:28.157Z,20.83
2023-03-03T01:31:54.734Z,21.23
2023-03-03T01:34:21.774Z,22.87
2023-03-03T01:36:48.359Z,21.93
2023-03-03T01:39:14.808Z,22.40
2023-03-03T01:41:41.501Z,24.00
2023-03-03T01:44:14.142Z,21.17
2023-03-03T01:46:50.044Z,19.70
2023-03-03T01:49:36.329Z,20.50
2023-03-03T01:52:13.006Z,21.50
2023-03-03T01:54:44.036Z,24.27
2023-03-03T01:57:23.929Z,21.40
2023-03-03T01:59:53.131Z,23.90
2023-03-03T02:02:20.060Z,20.37
2023-03-03T02:04:46.544Z,21.37
2023-03-03T02:07:16.233Z,21.60
2023-03-03T02:10:12.330Z,21.50
2023-03-03T02:12:43.593Z,21.77
2023-03-03T02:15:17.378Z,23.30
2023-03-03T02:17:45.087Z,21.73
2023-03-03T02:20:33.322Z,22.90
2023-03-03T02:23:29.528Z,22.10
2023-03-03T02:25:58.786Z,22.50
2023-03-03T02:28:31.071Z,20.07
2023-03-03T02:31:02.245Z,18.67
2023-03-03T02:33:29.551Z,21.67
2023-03-03T02:35:56.240Z,23.13
2023-03-03T02:38:53.452Z,21.73
2023-03-03T02:41:32.899Z,20.40
2023-03-03T02:44:12.946Z,20.70
2023-03-03T02:46:42.482Z,22.10
2023-03-03T02:49:11.689Z,22.73
2023-03-03T02:51:38.945Z,22.00
2023-03-03T02:54:06.728Z,20.83
2023-03-03T02:56:34.570Z,23.13
2023-03-03T02:59:01.379Z,22.57
2023-03-03T03:01:36.861Z,21.93
2023-03-03T03:04:14.452Z,21.20
2023-03-03T03:06:44.282Z,23.73
2023-03-03T03:09:13.186Z,22.30
2023-03-03T03:11:40.308Z,25.67
2023-03-03T03:14:09.808Z,23.10
2023-03-03T03:16:36.989Z,23.57
2023-03-03T03:19:04.881Z,25.00
2023-03-03T03:21:33.061Z,23.30
2023-03-03T03:24:00.610Z,21.97
2023-03-03T03:26:27.801Z,26.03
2023-03-03T03:28:54.714Z,23.63
2023-03-03T03:31:22.327Z,22.83
2023-03-03T03:33:49.067Z,22.13
2023-03-03T03:36:17.281Z,22.07
2023-03-03T03:38:43.866Z,23.00
2023-03-03T03:41:13.095Z,25.73
2023-03-03T03:43:40.403Z,24.60
2023-03-03T03:46:07.485Z,23.87
2023-03-03T03:48:35.192Z,21.40
2023-03-03T03:51:03.856Z,22.70
2023-03-03T03:53:31.986Z,24.27
2023-03-03T03:55:58.798Z,21.57
2023-03-03T03:58:25.812Z,22.60
2023-03-03T04:01:03.533Z,22.80
2023-03-03T04:03:30.246Z,22.47
2023-03-03T04:05:57.084Z,24.60
2023-03-03T04:08:23.804Z,23.83
2023-03-03T04:10:50.325Z,22.07
2023-03-03T04:13:17.669Z,25.03
2023-03-03T04:15:45.148Z,24.00
2023-03-03T04:18:11.810Z,20.40
2023-03-03T04:20:40.202Z,23.90
2023-03-03T04:23:07.326Z,24.00
2023-03-03T04:25:34.207Z,26.03
2023-03-03T04:28:03.950Z,22.87
2023-03-03T04:30:32.440Z,25.80
2023-03-03T04:32:59.475Z,25.47
2023-03-03T04:35:27.222Z,25.10
2023-03-03T04:37:54.085Z,22.83
2023-03-03T04:40:20.715Z,23.00
2023-03-03T04:42:49.812Z,24.47
2023-03-03T04:45:16.489Z,24.67
2023-03-03T04:47:44.990Z,23.27
2023-03-03T04:50:12.721Z,25.00
2023-03-03T04:52:40.229Z,25.40
2023-03-03T04:55:10.558Z,25.37
2023-03-03T04:57:38.294Z,22.43
2023-03-03T05:00:06.661Z,23.70
2023-03-03T05:02:33.299Z,24.33
2023-03-03T05:05:00.604Z,23.17
2023-03-03T05:07:27.171Z,25.20
2023-03-03T05:09:53.648Z,27.20
2023-03-03T05:12:20.134Z,24.10
2023-03-03T05:14:46.665Z,23.97
2023-03-03T05:17:13.197Z,26.43
2023-03-03T05:19:39.992Z,23.93
2023-03-03T05:22:06.584Z,27.40
2023-03-03T05:24:33.036Z,25.50
2023-03-03T05:26:59.648Z,27.07
2023-03-03T05:29:26.284Z,25.67
2023-03-03T05:31:52.799Z,25.13
2023-03-03T05:34:19.356Z,26.53
2023-03-03T05:36:45.789Z,28.00
2023-03-03T05:39:12.274Z,25.03
2023-03-03T05:41:38.820Z,25.90
2023-03-03T05:44:05.745Z,25.73
2023-03-03T05:46:32.320Z,25.70
2023-03-03T05:48:58.875Z,24.30
2023-03-03T05:51:25.592Z,25.47
2023-03-03T05:53:52.055Z,25.80
2023-03-03T05:56:18.522Z,25.50
2023-03-03T05:58:45.914Z,26.47
2023-03-03T06:01:12.747Z,25.73
2023-03-03T06:03:39.200Z,25.97
2023-03-03T06:06:05.965Z,28.60
2023-03-03T06:08:32.766Z,28.80
2023-03-03T06:10:59.264Z,27.30
2023-03-03T06:13:26.033Z,30.23
2023-03-03T06:15:52.656Z,27.40
2023-03-03T06:18:19.952Z,26.10
2023-03-03T06:20:51.638Z,25.80
2023-03-03T06:23:18.075Z,24.43
2023-03-03T06:25:44.718Z,27.33
2023-03-03T06:28:11.151Z,27.97
2023-03-03T06:30:37.970Z,27.73
2023-03-03T06:33:05.472Z,25.90
2023-03-03T06:35:32.062Z,27.70
2023-03-03T06:37:58.628Z,29.23
2023-03-03T06:40:25.057Z,29.80
2023-03-03T06:42:51.546Z,26.60
2023-03-03T06:45:18.119Z,27.30
2023-03-03T06:47:44.562Z,29.60
2023-03-03T06:50:12.628Z,28.03
2023-03-03T06:52:39.162Z,28.47
2023-03-03T06:55:22.683Z,28.00
2023-03-03T06:57:49.194Z,27.50
2023-03-03T07:00:23.179Z,27.63
2023-03-03T07:03:28.198Z,28.47
2023-03-03T07:05:54.629Z,28.07
2023-03-03T07:08:23.864Z,29.43
2023-03-03T07:10:52.326Z,31.47
2023-03-03T07:13:27.749Z,31.53
2023-03-03T07:15:56.497Z,29.03
2023-03-03T07:18:39.691Z,28.60
2023-03-03T07:21:13.513Z,29.80
2023-03-03T07:23:42.435Z,35.47
2023-03-03T07:26:22.245Z,30.27
2023-03-03T07:28:58.391Z,29.47
2023-03-03T07:31:27.799Z,28.80
2023-03-03T07:33:55.433Z,29.90
2023-03-03T07:36:29.773Z,30.57
2023-03-03T07:39:01.144Z,30.67
2023-03-03T07:41:28.807Z,28.80
2023-03-03T07:44:06.558Z,32.80
2023-03-03T07:46:48.461Z,30.00
2023-03-03T07:49:39.770Z,29.00
2023-03-03T07:52:26.248Z,31.13
2023-03-03T07:54:54.081Z,29.13
2023-03-03T07:57:35.035Z,30.60
2023-03-03T08:00:33.323Z,32.93
2023-03-03T08:03:05.118Z,32.50
2023-03-03T08:05:31.616Z,32.80
2023-03-03T08:08:10.652Z,31.47
2023-03-03T08:10:54.589Z,33.93
2023-03-03T08:13:25.178Z,30.70
2023-03-03T08:16:11.919Z,30.90
2023-03-03T08:18:47.739Z,32.63
2023-03-03T08:21:26.257Z,30.70
2023-03-03T08:23:53.688Z,28.83
2023-03-03T08:26:22.421Z,31.03
2023-03-03T08:28:49.481Z,31.10
2023-03-03T08:31:28.002Z,31.03
2023-03-03T08:34:01.030Z,30.83
2023-03-03T08:36:27.689Z,31.37
2023-03-03T08:38:54.116Z,29.00
2023-03-03T08:41:20.583Z,32.07
2023-03-03T08:43:47.000Z,31.27
2023-03-03T08:46:13.506Z,32.50
2023-03-03T08:48:39.984Z,29.70
2023-03-03T08:51:06.696Z,29.17
2023-03-03T08:53:36.437Z,29.83
2023-03-03T08:56:03.507Z,31.57
2023-03-03T08:58:35.070Z,31.40
2023-03-03T09:01:02.212Z,30.50
2023-03-03T09:03:29.866Z,32.77
2023-03-03T09:05:56.332Z,32.10
2023-03-03T09:08:22.830Z,29.00
2023-03-03T09:10:49.300Z,32.20
2023-03-03T09:13:19.084Z,31.97
2023-03-03T09:15:46.548Z,31.00
2023-03-03T09:18:31.407Z,31.20
2023-03-03T09:20:57.864Z,31.97
2023-03-03T09:23:38.909Z,30.30
2023-03-03T09:26:11.481Z,31.40
2023-03-03T09:28:38.254Z,31.87
2023-03-03T09:31:21.990Z,32.60
2023-03-03T09:33:51.937Z,31.83
2023-03-03T09:36:38.077Z,29.63
2023-03-03T09:39:19.792Z,28.23
2023-03-03T09:42:16.899Z,31.90
2023-03-03T09:45:01.552Z,31.70
2023-03-03T09:47:42.943Z,30.07
2023-03-03T09:50:47.907Z,30.13
2023-03-03T09:53:48.501Z,29.30
2023-03-03T09:56:46.912Z,31.13
2023-03-03T09:59:22.119Z,28.43
2023-03-03T10:01:57.627Z,30.33
2023-03-03T10:04:44.320Z,32.30
2023-03-03T10:07:32.958Z,28.40
2023-03-03T10:10:30.892Z,31.20
2023-03-03T10:13:19.124Z,32.33
2023-03-03T10:16:37.294Z,31.33
2023-03-03T10:19:24.525Z,30.80
2023-03-03T10:22:19.562Z,31.93
2023-03-03T10:25:19.600Z,31.77
2023-03-03T10:28:07.944Z,32.20
2023-03-03T10:31:05.595Z,32.90
2023-03-03T10:33:49.878Z,33.87
2023-03-03T10:36:25.253Z,31.37
2023-03-03T10:39:12.358Z,30.53
2023-03-03T10:41:47.916Z,32.17
2023-03-03T10:44:37.601Z,29.90
2023-03-03T10:47:22.243Z,29.53
2023-03-03T10:50:01.250Z,32.00
2023-03-03T10:52:44.287Z,33.00
2023-03-03T10:55:44.353Z,30.13
2023-03-03T10:58:48.444Z,28.83
2023-03-03T11:01:46.271Z,30.50
2023-03-03T11:04:42.488Z,32.73
2023-03-03T11:07:26.928Z,31.40
2023-03-03T11:10:23.955Z,28.57
2023-03-03T11:13:10.756Z,30.53
2023-03-03T11:16:18.951Z,31.00
2023-03-03T11:19:02.365Z,29.70
2023-03-03T11:22:19.404Z,33.07
2023-03-03T11:25:10.494Z,33.73
2023-03-03T11:27:50.242Z,29.47
2023-03-03T11:30:34.356Z,31.60
2023-03-03T11:33:14.932Z,30.50
2023-03-03T11:35:49.922Z,29.83
2023-03-03T11:38:50.719Z,32.90
2023-03-03T11:41:29.267Z,30.70
2023-03-03T11:44:20.926Z,30.80
2023-03-03T11:46:56.247Z,30.63
2023-03-03T11:49:42.967Z,30.87
2023-03-03T11:52:32.689Z,31.57
2023-03-03T11:55:24.856Z,30.97
2023-03-03T11:58:00.956Z,30.40
2023-03-03T12:00:41.069Z,32.60
2023-03-03T12:03:17.356Z,29.37
2023-03-03T12:06:02.256Z,32.47
2023-03-03T12:09:06.747Z,32.73
2023-03-03T12:11:39.511Z,29.73
2023-03-03T12:14:31.268Z,29.43
2023-03-03T12:17:01.731Z,30.57
2023-03-03T12:19:49.938Z,34.27
2023-03-03T12:22:19.385Z,31.07
2023-03-03T12:25:04.835Z,31.20
2023-03-03T12:28:08.634Z,31.00
2023-03-03T12:30:59.342Z,31.90
2023-03-03T12:33:53.062Z,31.40
2023-03-03T12:36:50.694Z,31.33
2023-03-03T12:39:37.453Z,30.50
2023-03-03T12:42:14.778Z,30.23
2023-03-03T12:44:51.070Z,33.23
2023-03-03T12:47:37.963Z,30.23
2023-03-03T12:50:31.062Z,29.60
2023-03-03T12:53:09.870Z,31.63
2023-03-03T12:55:58.532Z,27.90
2023-03-03T12:58:36.836Z,28.60
2023-03-03T13:01:17.554Z,27.40
2023-03-03T13:04:02.133Z,28.30
2023-03-03T13:06:31.527Z,29.97
2023-03-03T13:09:27.035Z,28.83
2023-03-03T13:12:28.126Z,29.20
2023-03-03T13:15:06.975Z,28.47
2023-03-03T13:17:56.341Z,29.30
2023-03-03T13:20:27.525Z,28.67
2023-03-03T13:23:25.426Z,27.57
2023-03-03T13:26:05.905Z,29.80
2023-03-03T13:28:57.767Z,28.97
2023-03-03T13:31:34.472Z,29.50
2023-03-03T13:34:02.211Z,31.10
2023-03-03T13:36:58.123Z,28.13
2023-03-03T13:39:33.299Z,27.20
2023-03-03T13:42:28.727Z,28.10
2023-03-03T13:44:56.738Z,27.30
2023-03-03T13:47:29.257Z,28.80
2023-03-03T13:50:19.187Z,27.80
2023-03-03T13:53:04.776Z,27.30
2023-03-03T13:55:41.870Z,27.50
2023-03-03T13:58:43.256Z,27.73
2023-03-03T14:01:22.566Z,27.80
2023-03-03T14:03:58.578Z,27.20
2023-03-03T14:06:27.509Z,27.10
2023-03-03T14:09:03.668Z,27.40
2023-03-03T14:11:34.212Z,29.53
2023-03-03T14:14:30.566Z,27.37
2023-03-03T14:17:22.872Z,28.20
2023-03-03T14:20:06.649Z,27.90
2023-03-03T14:23:05.132Z,27.90
2023-03-03T14:25:57.851Z,26.53
2023-03-03T14:28:27.558Z,27.90
2023-03-03T14:30:56.889Z,26.97
2023-03-03T14:33:30.832Z,26.30
2023-03-03T14:35:57.498Z,26.00
2023-03-03T14:38:46.321Z,29.83
2023-03-03T14:41:14.768Z,29.23
2023-03-03T14:43:43.929Z,26.60
2023-03-03T14:46:31.843Z,28.43
2023-03-03T14:49:00.991Z,30.80
2023-03-03T14:51:39.865Z,29.63
2023-03-03T14:54:19.785Z,29.20
2023-03-03T14:57:20.590Z,28.07
2023-03-03T15:00:00.961Z,29.13
2023-03-03T15:02:31.078Z,28.10
2023-03-03T15:05:18.824Z,30.90
2023-03-03T15:07:48.834Z,26.20
2023-03-03T15:10:27.929Z,29.20
2023-03-03T15:12:54.691Z,26.90
2023-03-03T15:15:25.559Z,28.27
2023-03-03T15:17:54.105Z,27.33
2023-03-03T15:20:43.194Z,28.57
2023-03-03T15:23:09.646Z,26.00
2023-03-03T15:25:49.732Z,26.00
2023-03-03T15:28:28.002Z,27.00
2023-03-03T15:31:12.987Z,27.57
2023-03-03T15:33:51.868Z,25.60
2023-03-03T15:36:52.492Z,25.20
2023-03-03T15:39:27.956Z,26.70
2023-03-03T15:42:10.384Z,28.67
2023-03-03T15:44:59.040Z,27.77
2023-03-03T15:47:53.687Z,29.63
2023-03-03T15:50:28.897Z,27.90
2023-03-03T15:52:55.436Z,28.60
2023-03-03T15:56:02.442Z,28.57
2023-03-03T15:58:40.497Z,26.30
2023-03-03T16:01:28.755Z,27.10
2023-03-03T16:04:10.969Z,28.40
2023-03-03T16:06:45.964Z,28.47
2023-03-03T16:09:29.809Z,29.53
2023-03-03T16:12:07.624Z,25.83
2023-03-03T16:14:51.278Z,26.87
2023-03-03T16:17:28.717Z,28.37
2023-03-03T16:20:28.136Z,28.73
2023-03-03T16:23:15.422Z,25.83
2023-03-03T16:25:59.290Z,28.23
2023-03-03T16:28:50.986Z,28.77
2023-03-03T16:31:30.789Z,29.70
2023-03-03T16:34:19.200Z,26.07
2023-03-03T16:37:27.810Z,27.37
2023-03-03T16:39:59.116Z,27.83
2023-03-03T16:42:28.908Z,27.90
2023-03-03T16:45:14.001Z,27.77
2023-03-03T16:47:58.825Z,30.30
2023-03-03T16:50:40.495Z,27.80
2023-03-03T16:53:26.297Z,29.17
2023-03-03T16:56:38.004Z,27.97
2023-03-03T16:59:33.430Z,28.77
2023-03-03T17:02:41.344Z,29.70
2023-03-03T17:05:23.295Z,27.10
2023-03-03T17:08:25.695Z,29.43
2023-03-03T17:11:13.531Z,26.60
2023-03-03T17:13:52.872Z,27.50
2023-03-03T17:16:28.337Z,27.00
2023-03-03T17:19:14.096Z,30.10
2023-03-03T17:22:14.592Z,30.50
2023-03-03T17:24:55.161Z,28.70
2023-03-03T17:27:34.202Z,27.87
2023-03-03T17:30:06.791Z,28.07
2023-03-03T17:32:36.480Z,29.37
2023-03-03T17:35:09.000Z,27.83
2023-03-03T17:37:42.616Z,27.50
2023-03-03T17:40:34.691Z,27.40
2023-03-03T17:43:21.509Z,29.97
2023-03-03T17:45:52.691Z,28.67
2023-03-03T17:48:41.966Z,28.57
2023-03-03T17:51:39.605Z,31.07
2023-03-03T17:54:19.246Z,29.20
2023-03-03T17:57:22.200Z,29.40
2023-03-03T18:00:22.088Z,29.40
2023-03-03T18:03:33.182Z,30.43
2023-03-03T18:06:17.563Z,30.97
2023-03-03T18:09:22.643Z,34.30
2023-03-03T18:12:10.004Z,33.90
2023-03-03T18:14:57.665Z,29.60
2023-03-03T18:17:41.032Z,30.00
2023-03-03T18:20:38.594Z,31.43
2023-03-03T18:23:35.315Z,32.70
2023-03-03T18:26:23.501Z,27.43
2023-03-03T18:28:50.988Z,32.57
2023-03-03T18:31:28.926Z,27.67
2023-03-03T18:34:24.326Z,30.40
2023-03-03T18:37:00.283Z,27.27
2023-03-03T18:39:41.075Z,29.00
2023-03-03T18:42:27.281Z,27.47
2023-03-03T18:44:53.880Z,27.60
2023-03-03T18:47:53.078Z,30.50
2023-03-03T18:50:33.877Z,32.67
2023-03-03T18:53:25.385Z,26.87
2023-03-03T18:55:57.621Z,28.70
2023-03-03T18:58:37.385Z,31.70
2023-03-03T19:01:31.949Z,31.23
2023-03-03T19:04:13.627Z,28.97
2023-03-03T19:06:43.004Z,29.20
2023-03-03T19:09:17.403Z,30.70
2023-03-03T19:11:57.176Z,31.73
2023-03-03T19:14:27.828Z,34.70
2023-03-03T19:16:59.519Z,31.10
2023-03-03T19:19:33.564Z,31.80
2023-03-03T19:22:22.270Z,34.60
2023-03-03T19:25:12.692Z,34.50
2023-03-03T19:27:47.907Z,32.00
2023-03-03T19:30:35.985Z,34.23
2023-03-03T19:33:18.421Z,32.03
2023-03-03T19:35:54.567Z,32.67
2023-03-03T19:38:21.359Z,35.77
2023-03-03T19:41:00.981Z,38.33
2023-03-03T19:44:14.272Z,39.10
2023-03-03T19:47:04.519Z,42.07
2023-03-03T19:50:05.118Z,40.67
2023-03-03T19:52:41.924Z,35.53
2023-03-03T19:55:40.538Z,37.47
2023-03-03T19:58:22.203Z,38.30
2023-03-03T20:00:57.449Z,34.03
2023-03-03T20:03:38.948Z,33.70
2023-03-03T20:06:11.330Z,34.27
2023-03-03T20:08:48.120Z,32.93
2023-03-03T20:11:46.286Z,33.20
2023-03-03T20:14:15.672Z,33.93
2023-03-03T20:16:48.147Z,34.80
2023-03-03T20:19:29.572Z,35.40
2023-03-03T20:22:15.193Z,33.07
2023-03-03T20:24:55.198Z,29.80
2023-03-03T20:27:35.769Z,32.77
2023-03-03T20:30:12.794Z,31.57
2023-03-03T20:33:02.133Z,32.63
2023-03-03T20:35:51.102Z,31.77
2023-03-03T20:38:17.456Z,32.43
2023-03-03T20:41:09.640Z,31.63
2023-03-03T20:43:54.691Z,33.50
2023-03-03T20:47:01.251Z,28.47
2023-03-03T20:49:50.807Z,29.97
2023-03-03T20:52:22.707Z,35.17
2023-03-03T20:55:40.306Z,31.63
2023-03-03T20:58:13.105Z,32.27
2023-03-03T21:01:11.455Z,34.87
2023-03-03T21:03:41.964Z,30.10
2023-03-03T21:06:17.940Z,31.37
2023-03-03T21:08:54.646Z,32.37
2023-03-03T21:11:24.084Z,34.07
2023-03-03T21:13:56.663Z,33.87
2023-03-03T21:16:23.073Z,35.53
2023-03-03T21:19:12.638Z,33.57
2023-03-03T21:21:41.623Z,33.30
2023-03-03T21:24:19.608Z,32.97
2023-03-03T21:26:48.830Z,32.07
2023-03-03T21:29:29.583Z,32.30
2023-03-03T21:32:07.717Z,34.27
2023-03-03T21:34:39.761Z,30.97
2023-03-03T21:37:12.416Z,32.00
2023-03-03T21:39:41.114Z,32.27
2023-03-03T21:42:10.119Z,30.90
2023-03-03T21:44:41.270Z,31.57
2023-03-03T21:47:10.301Z,31.50
2023-03-03T21:49:41.177Z,31.13
2023-03-03T21:52:07.785Z,36.20
2023-03-03T21:54:34.259Z,31.43
2023-03-03T21:57:00.698Z,32.10
2023-03-03T21:59:27.353Z,33.40
2023-03-03T22:01:53.824Z,32.17
2023-03-03T22:04:20.468Z,32.47
2023-03-03T22:06:47.190Z,35.20
2023-03-03T22:09:14.104Z,32.63
2023-03-03T22:11:40.625Z,32.50
2023-03-03T22:14:07.700Z,31.27
2023-03-03T22:16:34.967Z,32.40
2023-03-03T22:19:02.813Z,32.50
2023-03-03T22:21:29.713Z,32.73
2023-03-03T22:23:56.151Z,31.10
2023-03-03T22:26:22.816Z,33.87
2023-03-03T22:28:52.318Z,32.43
2023-03-03T22:31:21.336Z,32.97
2023-03-03T22:33:49.870Z,33.37
2023-03-03T22:36:18.850Z,34.90
2023-03-03T22:38:46.700Z,33.23
2023-03-03T22:41:13.730Z,33.27
2023-03-03T22:43:41.753Z,34.10
2023-03-03T22:46:08.993Z,34.50
2023-03-03T22:48:45.373Z,34.97
2023-03-03T22:51:14.624Z,33.80
2023-03-03T22:53:46.386Z,36.27
2023-03-03T22:56:13.002Z,35.57
2023-03-03T22:58:39.510Z,35.27
2023-03-03T23:01:05.988Z,33.40
2023-03-03T23:03:32.856Z,32.60
2023-03-03T23:05:59.699Z,35.17
2023-03-03T23:08:27.449Z,32.33
2023-03-03T23:10:53.874Z,32.90
2023-03-03T23:13:21.510Z,31.73
2023-03-03T23:15:47.983Z,31.63
2023-03-03T23:18:14.428Z,33.23
2023-03-03T23:20:45.700Z,35.33
2023-03-03T23:23:12.220Z,33.67
2023-03-03T23:25:38.924Z,31.77
2023-03-03T23:28:05.667Z,33.07
2023-03-03T23:30:32.142Z,34.00
2023-03-03T23:32:58.561Z,35.37
2023-03-03T23:35:25.115Z,34.40
2023-03-03T23:37:51.712Z,33.27
2023-03-03T23:40:18.347Z,33.70
2023-03-03T23:42:44.869Z,33.40
2023-03-03T23:45:12.829Z,32.70
2023-03-03T23:47:39.571Z,32.40
2023-03-03T23:50:06.542Z,34.63
2023-03-03T23:52:33.032Z,33.10
2023-03-03T23:54:59.485Z,33.33
2023-03-03T23:57:25.956Z,34.83
2023-03-03T23:59:52.394Z,31.93
